sensor_id;sensor_type;location;lat;lon;timestamp;pressure;altitude;pressure_sealevel;temperature;humidity
42067;BME280;27734;47.028;28.820;2022-12-18T00:02:01;101207.88;;;1.76;85.41
42067;BME280;27734;47.028;28.820;2022-12-18T00:04:33;101226.50;;;1.72;85.45
42067;BME280;27734;47.028;28.820;2022-12-18T00:07:04;101229.34;;;1.65;84.97
42067;BME280;27734;47.028;28.820;2022-12-18T00:09:35;101229.77;;;1.59;85.19
42067;BME280;27734;47.028;28.820;2022-12-18T00:12:07;101237.02;;;1.53;85.14
42067;BME280;27734;47.028;28.820;2022-12-18T00:14:39;101241.03;;;1.50;85.15
42067;BME280;27734;47.028;28.820;2022-12-18T00:17:10;101252.65;;;1.44;85.43
42067;BME280;27734;47.028;28.820;2022-12-18T00:19:41;101238.44;;;1.39;85.39
42067;BME280;27734;47.028;28.820;2022-12-18T00:22:12;101258.10;;;1.37;85.53
42067;BME280;27734;47.028;28.820;2022-12-18T00:24:43;101260.43;;;1.34;85.61
42067;BME280;27734;47.028;28.820;2022-12-18T00:27:14;101290.27;;;1.31;85.72
42067;BME280;27734;47.028;28.820;2022-12-18T00:29:45;101276.45;;;1.30;85.78
42067;BME280;27734;47.028;28.820;2022-12-18T00:32:16;101283.31;;;1.30;86.17
42067;BME280;27734;47.028;28.820;2022-12-18T00:34:47;101285.90;;;1.30;86.45
42067;BME280;27734;47.028;28.820;2022-12-18T00:37:18;101311.63;;;1.28;86.10
42067;BME280;27734;47.028;28.820;2022-12-18T00:39:53;101294.67;;;1.32;86.00
42067;BME280;27734;47.028;28.820;2022-12-18T00:42:24;101284.34;;;1.32;86.42
42067;BME280;27734;47.028;28.820;2022-12-18T00:45:13;101282.02;;;1.35;86.83
42067;BME280;27734;47.028;28.820;2022-12-18T00:47:45;101283.70;;;1.34;86.02
42067;BME280;27734;47.028;28.820;2022-12-18T00:50:16;101286.16;;;1.33;86.53
42067;BME280;27734;47.028;28.820;2022-12-18T00:52:48;101297.39;;;1.33;86.34
42067;BME280;27734;47.028;28.820;2022-12-18T00:55:19;101306.84;;;1.33;85.93
42067;BME280;27734;47.028;28.820;2022-12-18T00:57:52;101313.94;;;1.35;86.55
42067;BME280;27734;47.028;28.820;2022-12-18T01:00:23;101305.16;;;1.33;86.08
42067;BME280;27734;47.028;28.820;2022-12-18T01:02:54;101302.56;;;1.33;86.39
42067;BME280;27734;47.028;28.820;2022-12-18T01:05:26;101317.05;;;1.31;85.83
42067;BME280;27734;47.028;28.820;2022-12-18T01:07:58;101304.00;;;1.30;86.44
42067;BME280;27734;47.028;28.820;2022-12-18T01:10:29;101313.41;;;1.29;86.49
42067;BME280;27734;47.028;28.820;2022-12-18T01:13:00;101318.59;;;1.29;86.77
42067;BME280;27734;47.028;28.820;2022-12-18T01:15:32;101318.72;;;1.31;86.29
42067;BME280;27734;47.028;28.820;2022-12-18T01:18:03;101321.43;;;1.32;86.53
42067;BME280;27734;47.028;28.820;2022-12-18T01:20:34;101335.29;;;1.33;86.63
42067;BME280;27734;47.028;28.820;2022-12-18T01:23:05;101328.43;;;1.33;86.60
42067;BME280;27734;47.028;28.820;2022-12-18T01:25:38;101325.84;;;1.33;86.45
42067;BME280;27734;47.028;28.820;2022-12-18T01:28:12;101321.56;;;1.34;86.86
42067;BME280;27734;47.028;28.820;2022-12-18T01:30:44;101332.84;;;1.34;87.09
42067;BME280;27734;47.028;28.820;2022-12-18T01:33:16;101321.17;;;1.29;86.40
42067;BME280;27734;47.028;28.820;2022-12-18T01:35:47;101321.56;;;1.23;86.63
42067;BME280;27734;47.028;28.820;2022-12-18T01:38:18;101336.69;;;1.19;86.70
42067;BME280;27734;47.028;28.820;2022-12-18T01:40:49;101336.42;;;1.16;86.85
42067;BME280;27734;47.028;28.820;2022-12-18T01:43:45;101338.73;;;1.13;86.71
42067;BME280;27734;47.028;28.820;2022-12-18T01:46:17;101345.43;;;1.11;86.40
42067;BME280;27734;47.028;28.820;2022-12-18T01:48:49;101358.09;;;1.07;86.67
42067;BME280;27734;47.028;28.820;2022-12-18T01:51:21;101359.37;;;1.02;85.59
42067;BME280;27734;47.028;28.820;2022-12-18T01:53:53;101369.17;;;0.96;85.53
42067;BME280;27734;47.028;28.820;2022-12-18T01:56:24;101365.56;;;0.94;85.97
42067;BME280;27734;47.028;28.820;2022-12-18T01:58:59;101378.34;;;0.93;85.44
42067;BME280;27734;47.028;28.820;2022-12-18T02:01:32;101387.52;;;0.89;85.88
42067;BME280;27734;47.028;28.820;2022-12-18T02:04:21;101393.93;;;0.84;85.43
42067;BME280;27734;47.028;28.820;2022-12-18T02:06:57;101398.06;;;0.82;85.34
42067;BME280;27734;47.028;28.820;2022-12-18T02:09:36;101404.78;;;0.80;85.41
42067;BME280;27734;47.028;28.820;2022-12-18T02:12:16;101399.20;;;0.75;85.60
42067;BME280;27734;47.028;28.820;2022-12-18T02:14:58;101405.75;;;0.71;85.18
42067;BME280;27734;47.028;28.820;2022-12-18T02:17:33;101410.64;;;0.68;85.45
42067;BME280;27734;47.028;28.820;2022-12-18T02:20:13;101417.36;;;0.66;85.33
42067;BME280;27734;47.028;28.820;2022-12-18T02:22:55;101418.12;;;0.65;85.18
42067;BME280;27734;47.028;28.820;2022-12-18T02:25:34;101422.11;;;0.62;85.65
42067;BME280;27734;47.028;28.820;2022-12-18T02:28:11;101420.42;;;0.62;85.35
42067;BME280;27734;47.028;28.820;2022-12-18T02:30:47;101426.24;;;0.60;85.33
42067;BME280;27734;47.028;28.820;2022-12-18T02:33:20;101426.86;;;0.57;85.68
42067;BME280;27734;47.028;28.820;2022-12-18T02:35:53;101430.20;;;0.56;85.43
42067;BME280;27734;47.028;28.820;2022-12-18T02:38:28;101432.51;;;0.53;85.84
42067;BME280;27734;47.028;28.820;2022-12-18T02:41:03;101434.05;;;0.51;85.54
42067;BME280;27734;47.028;28.820;2022-12-18T02:43:35;101426.95;;;0.48;85.45
42067;BME280;27734;47.028;28.820;2022-12-18T02:46:25;101431.19;;;0.48;85.90
42067;BME280;27734;47.028;28.820;2022-12-18T02:49:04;101432.59;;;0.44;85.29
42067;BME280;27734;47.028;28.820;2022-12-18T02:51:44;101444.61;;;0.44;85.64
42067;BME280;27734;47.028;28.820;2022-12-18T02:54:25;101447.05;;;0.42;85.56
42067;BME280;27734;47.028;28.820;2022-12-18T02:57:01;101445.98;;;0.40;85.48
42067;BME280;27734;47.028;28.820;2022-12-18T02:59:41;101448.42;;;0.39;85.40
42067;BME280;27734;47.028;28.820;2022-12-18T03:02:23;101459.55;;;0.38;85.71
42067;BME280;27734;47.028;28.820;2022-12-18T03:05:03;101458.75;;;0.39;85.68
42067;BME280;27734;47.028;28.820;2022-12-18T03:07:41;101463.64;;;0.35;85.66
42067;BME280;27734;47.028;28.820;2022-12-18T03:10:16;101478.23;;;0.35;85.79
42067;BME280;27734;47.028;28.820;2022-12-18T03:12:53;101477.95;;;0.32;85.94
42067;BME280;27734;47.028;28.820;2022-12-18T03:15:30;101487.38;;;0.31;86.20
42067;BME280;27734;47.028;28.820;2022-12-18T03:18:15;101493.44;;;0.32;85.82
42067;BME280;27734;47.028;28.820;2022-12-18T03:20:51;101507.89;;;0.30;85.94
42067;BME280;27734;47.028;28.820;2022-12-18T03:23:25;101497.70;;;0.31;85.68
42067;BME280;27734;47.028;28.820;2022-12-18T03:26:01;101501.33;;;0.33;85.05
42067;BME280;27734;47.028;28.820;2022-12-18T03:28:36;101504.05;;;0.35;85.37
42067;BME280;27734;47.028;28.820;2022-12-18T03:31:12;101514.66;;;0.38;85.44
42067;BME280;27734;47.028;28.820;2022-12-18T03:33:47;101512.23;;;0.40;86.06
42067;BME280;27734;47.028;28.820;2022-12-18T03:36:22;101514.20;;;0.42;86.03
42067;BME280;27734;47.028;28.820;2022-12-18T03:38:54;101514.48;;;0.45;86.36
42067;BME280;27734;47.028;28.820;2022-12-18T03:41:31;101521.58;;;0.48;85.97
42067;BME280;27734;47.028;28.820;2022-12-18T03:44:23;101523.69;;;0.52;85.77
42067;BME280;27734;47.028;28.820;2022-12-18T03:47:04;101527.31;;;0.54;86.03
42067;BME280;27734;47.028;28.820;2022-12-18T03:49:41;101521.53;;;0.57;86.02
42067;BME280;27734;47.028;28.820;2022-12-18T03:52:35;101529.70;;;0.61;85.95
42067;BME280;27734;47.028;28.820;2022-12-18T03:55:08;101535.30;;;0.66;86.07
42067;BME280;27734;47.028;28.820;2022-12-18T03:57:41;101536.61;;;0.71;85.97
42067;BME280;27734;47.028;28.820;2022-12-18T04:00:16;101541.16;;;0.74;86.02
42067;BME280;27734;47.028;28.820;2022-12-18T04:03:02;101542.34;;;0.77;85.74
42067;BME280;27734;47.028;28.820;2022-12-18T04:05:41;101542.63;;;0.80;85.89
42067;BME280;27734;47.028;28.820;2022-12-18T04:08:14;101543.66;;;0.82;86.04
42067;BME280;27734;47.028;28.820;2022-12-18T04:10:48;101549.11;;;0.85;86.04
42067;BME280;27734;47.028;28.820;2022-12-18T04:13:27;101566.58;;;0.88;86.13
42067;BME280;27734;47.028;28.820;2022-12-18T04:15:59;101565.03;;;0.90;86.03
42067;BME280;27734;47.028;28.820;2022-12-18T04:18:31;101571.27;;;0.92;85.90
42067;BME280;27734;47.028;28.820;2022-12-18T04:21:03;101580.82;;;0.93;85.89
42067;BME280;27734;47.028;28.820;2022-12-18T04:23:34;101586.13;;;0.95;85.88
42067;BME280;27734;47.028;28.820;2022-12-18T04:26:05;101592.23;;;0.95;85.74
42067;BME280;27734;47.028;28.820;2022-12-18T04:28:48;101601.64;;;0.95;85.54
42067;BME280;27734;47.028;28.820;2022-12-18T04:31:19;101609.39;;;0.95;85.52
42067;BME280;27734;47.028;28.820;2022-12-18T04:33:50;101615.35;;;0.94;85.45
42067;BME280;27734;47.028;28.820;2022-12-18T04:36:22;101606.81;;;0.95;85.96
42067;BME280;27734;47.028;28.820;2022-12-18T04:38:56;101610.94;;;0.93;85.09
42067;BME280;27734;47.028;28.820;2022-12-18T04:41:27;101610.05;;;0.92;85.38
42067;BME280;27734;47.028;28.820;2022-12-18T04:43:58;101615.21;;;0.92;84.94
42067;BME280;27734;47.028;28.820;2022-12-18T04:46:29;101613.23;;;0.89;85.19
42067;BME280;27734;47.028;28.820;2022-12-18T04:49:00;101625.27;;;0.89;85.24
42067;BME280;27734;47.028;28.820;2022-12-18T04:51:31;101624.33;;;0.88;84.71
42067;BME280;27734;47.028;28.820;2022-12-18T04:54:03;101634.53;;;0.87;85.02
42067;BME280;27734;47.028;28.820;2022-12-18T04:56:34;101642.28;;;0.87;84.90
42067;BME280;27734;47.028;28.820;2022-12-18T04:59:05;101643.83;;;0.85;84.61
42067;BME280;27734;47.028;28.820;2022-12-18T05:01:36;101652.47;;;0.85;84.69
42067;BME280;27734;47.028;28.820;2022-12-18T05:04:07;101643.68;;;0.83;84.76
42067;BME280;27734;47.028;28.820;2022-12-18T05:06:38;101648.84;;;0.83;84.09
42067;BME280;27734;47.028;28.820;2022-12-18T05:09:09;101657.36;;;0.82;84.58
42067;BME280;27734;47.028;28.820;2022-12-18T05:11:40;101659.66;;;0.79;84.03
42067;BME280;27734;47.028;28.820;2022-12-18T05:14:12;101675.52;;;0.74;82.77
42067;BME280;27734;47.028;28.820;2022-12-18T05:16:43;101674.00;;;0.67;82.64
42067;BME280;27734;47.028;28.820;2022-12-18T05:19:14;101682.55;;;0.66;83.00
42067;BME280;27734;47.028;28.820;2022-12-18T05:21:45;101701.23;;;0.63;82.26
42067;BME280;27734;47.028;28.820;2022-12-18T05:24:16;101694.09;;;0.61;82.54
42067;BME280;27734;47.028;28.820;2022-12-18T05:26:47;101699.11;;;0.59;82.68
42067;BME280;27734;47.028;28.820;2022-12-18T05:29:18;101703.23;;;0.57;83.43
42067;BME280;27734;47.028;28.820;2022-12-18T05:31:50;101715.25;;;0.57;82.18
42067;BME280;27734;47.028;28.820;2022-12-18T05:34:21;101715.86;;;0.54;82.50
42067;BME280;27734;47.028;28.820;2022-12-18T05:36:52;101723.46;;;0.52;83.19
42067;BME280;27734;47.028;28.820;2022-12-18T05:39:23;101729.27;;;0.50;82.84
42067;BME280;27734;47.028;28.820;2022-12-18T05:41:54;101742.03;;;0.48;82.37
42067;BME280;27734;47.028;28.820;2022-12-18T05:44:26;101747.36;;;0.41;81.30
42067;BME280;27734;47.028;28.820;2022-12-18T05:46:57;101752.09;;;0.28;78.84
42067;BME280;27734;47.028;28.820;2022-12-18T05:49:28;101751.49;;;0.22;79.27
42067;BME280;27734;47.028;28.820;2022-12-18T05:51:59;101761.67;;;0.20;80.20
42067;BME280;27734;47.028;28.820;2022-12-18T05:54:30;101762.00;;;0.14;79.74
42067;BME280;27734;47.028;28.820;2022-12-18T05:57:02;101775.52;;;0.12;80.17
42067;BME280;27734;47.028;28.820;2022-12-18T05:59:33;101781.12;;;0.08;79.44
42067;BME280;27734;47.028;28.820;2022-12-18T06:02:04;101772.92;;;0.03;79.23
42067;BME280;27734;47.028;28.820;2022-12-18T06:04:35;101760.66;;;0.01;80.11
42067;BME280;27734;47.028;28.820;2022-12-18T06:07:06;101800.44;;;-0.06;78.90
42067;BME280;27734;47.028;28.820;2022-12-18T06:09:37;101797.41;;;-0.11;79.27
42067;BME280;27734;47.028;28.820;2022-12-18T06:12:09;101823.65;;;-0.15;78.22
42067;BME280;27734;47.028;28.820;2022-12-18T06:14:40;101843.08;;;-0.19;76.70
42067;BME280;27734;47.028;28.820;2022-12-18T06:17:11;101818.18;;;-0.18;78.44
42067;BME280;27734;47.028;28.820;2022-12-18T06:19:42;101828.50;;;-0.18;77.91
42067;BME280;27734;47.028;28.820;2022-12-18T06:22:13;101825.02;;;-0.19;78.56
42067;BME280;27734;47.028;28.820;2022-12-18T06:24:44;101821.66;;;-0.17;79.27
42067;BME280;27734;47.028;28.820;2022-12-18T06:27:15;101835.02;;;-0.13;79.25
42067;BME280;27734;47.028;28.820;2022-12-18T06:29:47;101828.37;;;-0.11;79.61
42067;BME280;27734;47.028;28.820;2022-12-18T06:32:18;101836.41;;;-0.08;79.23
42067;BME280;27734;47.028;28.820;2022-12-18T06:34:49;101834.58;;;-0.09;78.22
42067;BME280;27734;47.028;28.820;2022-12-18T06:37:20;101831.10;;;-0.09;78.68
42067;BME280;27734;47.028;28.820;2022-12-18T06:39:53;101844.75;;;-0.10;78.04
42067;BME280;27734;47.028;28.820;2022-12-18T06:42:26;101848.23;;;-0.10;77.44
42067;BME280;27734;47.028;28.820;2022-12-18T06:44:57;101849.16;;;-0.09;77.46
42067;BME280;27734;47.028;28.820;2022-12-18T06:47:28;101864.33;;;-0.04;78.84
42067;BME280;27734;47.028;28.820;2022-12-18T06:49:59;101857.67;;;-0.02;77.23
42067;BME280;27734;47.028;28.820;2022-12-18T06:55:04;101865.84;;;0.03;77.48
42067;BME280;27734;47.028;28.820;2022-12-18T06:57:36;101868.57;;;0.05;78.04
42067;BME280;27734;47.028;28.820;2022-12-18T07:00:09;101873.73;;;0.05;77.50
42067;BME280;27734;47.028;28.820;2022-12-18T07:02:40;101859.33;;;0.07;77.07
42067;BME280;27734;47.028;28.820;2022-12-18T07:05:11;101878.30;;;0.07;76.92
42067;BME280;27734;47.028;28.820;2022-12-18T07:07:43;101881.63;;;0.06;76.56
42067;BME280;27734;47.028;28.820;2022-12-18T07:10:14;101891.52;;;0.10;76.42
42067;BME280;27734;47.028;28.820;2022-12-18T07:12:45;101889.39;;;0.15;77.52
42067;BME280;27734;47.028;28.820;2022-12-18T07:15:16;101889.41;;;0.24;76.95
42067;BME280;27734;47.028;28.820;2022-12-18T07:17:47;101892.27;;;0.35;78.32
42067;BME280;27734;47.028;28.820;2022-12-18T07:20:18;101895.02;;;0.46;76.95
42067;BME280;27734;47.028;28.820;2022-12-18T07:22:49;101899.73;;;0.50;77.23
42067;BME280;27734;47.028;28.820;2022-12-18T07:25:24;101909.58;;;0.54;76.88
42067;BME280;27734;47.028;28.820;2022-12-18T07:27:55;101921.45;;;0.52;74.86
42067;BME280;27734;47.028;28.820;2022-12-18T07:30:26;101916.28;;;0.52;75.51
42067;BME280;27734;47.028;28.820;2022-12-18T07:32:57;101919.47;;;0.58;76.84
42067;BME280;27734;47.028;28.820;2022-12-18T07:35:28;101936.05;;;0.51;75.86
42067;BME280;27734;47.028;28.820;2022-12-18T07:37:59;101926.31;;;0.49;75.56
42067;BME280;27734;47.028;28.820;2022-12-18T07:40:30;101927.84;;;0.47;76.27
42067;BME280;27734;47.028;28.820;2022-12-18T07:43:02;101931.77;;;0.43;75.74
42067;BME280;27734;47.028;28.820;2022-12-18T07:45:33;101942.73;;;0.41;75.06
42067;BME280;27734;47.028;28.820;2022-12-18T07:48:04;101941.20;;;0.43;75.41
42067;BME280;27734;47.028;28.820;2022-12-18T07:50:36;101950.32;;;0.39;74.73
42067;BME280;27734;47.028;28.820;2022-12-18T07:53:07;101955.64;;;0.41;75.76
42067;BME280;27734;47.028;28.820;2022-12-18T07:55:38;101955.16;;;0.45;76.25
42067;BME280;27734;47.028;28.820;2022-12-18T07:58:11;101965.05;;;0.49;75.85
42067;BME280;27734;47.028;28.820;2022-12-18T08:00:42;101965.80;;;0.48;75.13
42067;BME280;27734;47.028;28.820;2022-12-18T08:03:13;101969.47;;;0.50;75.22
42067;BME280;27734;47.028;28.820;2022-12-18T08:05:44;101964.30;;;0.50;75.54
42067;BME280;27734;47.028;28.820;2022-12-18T08:08:16;101961.09;;;0.52;75.81
42067;BME280;27734;47.028;28.820;2022-12-18T08:10:47;101972.05;;;0.50;75.79
42067;BME280;27734;47.028;28.820;2022-12-18T08:13:18;101976.13;;;0.48;75.44
42067;BME280;27734;47.028;28.820;2022-12-18T08:15:57;101975.52;;;0.42;75.05
42067;BME280;27734;47.028;28.820;2022-12-18T08:18:29;101981.91;;;0.37;75.02
42067;BME280;27734;47.028;28.820;2022-12-18T08:21:09;101988.91;;;0.38;75.44
42067;BME280;27734;47.028;28.820;2022-12-18T08:23:40;101987.51;;;0.32;74.82
42067;BME280;27734;47.028;28.820;2022-12-18T08:26:12;101998.92;;;0.34;76.01
42067;BME280;27734;47.028;28.820;2022-12-18T08:28:43;101995.41;;;0.34;76.05
42067;BME280;27734;47.028;28.820;2022-12-18T08:31:14;102003.00;;;0.32;75.22
42067;BME280;27734;47.028;28.820;2022-12-18T08:33:45;101999.83;;;0.35;75.62
42067;BME280;27734;47.028;28.820;2022-12-18T08:36:19;102002.72;;;0.38;75.88
42067;BME280;27734;47.028;28.820;2022-12-18T08:38:50;101997.11;;;0.42;76.36
42067;BME280;27734;47.028;28.820;2022-12-18T08:41:22;101999.85;;;0.44;76.14
42067;BME280;27734;47.028;28.820;2022-12-18T08:43:53;102012.59;;;0.51;76.57
42067;BME280;27734;47.028;28.820;2022-12-18T08:46:43;102017.17;;;0.53;75.39
42067;BME280;27734;47.028;28.820;2022-12-18T08:49:14;102020.66;;;0.54;76.26
42067;BME280;27734;47.028;28.820;2022-12-18T08:51:45;102004.41;;;0.55;76.77
42067;BME280;27734;47.028;28.820;2022-12-18T08:54:17;102010.78;;;0.59;76.54
42067;BME280;27734;47.028;28.820;2022-12-18T08:56:48;102010.19;;;0.61;76.49
42067;BME280;27734;47.028;28.820;2022-12-18T08:59:20;102007.61;;;0.61;76.08
42067;BME280;27734;47.028;28.820;2022-12-18T09:01:53;102015.51;;;0.63;76.55
42067;BME280;27734;47.028;28.820;2022-12-18T09:04:24;102009.56;;;0.64;76.19
42067;BME280;27734;47.028;28.820;2022-12-18T09:06:55;102019.61;;;0.69;76.28
42067;BME280;27734;47.028;28.820;2022-12-18T09:09:26;102029.78;;;0.68;76.09
42067;BME280;27734;47.028;28.820;2022-12-18T09:11:57;102030.38;;;0.65;76.67
42067;BME280;27734;47.028;28.820;2022-12-18T09:14:28;102028.89;;;0.67;76.64
42067;BME280;27734;47.028;28.820;2022-12-18T09:16:59;102032.06;;;0.65;75.55
42067;BME280;27734;47.028;28.820;2022-12-18T09:19:31;102029.33;;;0.63;75.50
42067;BME280;27734;47.028;28.820;2022-12-18T09:22:02;102014.42;;;0.61;76.20
42067;BME280;27734;47.028;28.820;2022-12-18T09:24:33;102028.42;;;0.63;76.52
42067;BME280;27734;47.028;28.820;2022-12-18T09:27:04;102024.47;;;0.66;75.99
42067;BME280;27734;47.028;28.820;2022-12-18T09:29:35;102022.03;;;0.68;76.10
42067;BME280;27734;47.028;28.820;2022-12-18T09:32:07;102027.51;;;0.71;75.66
42067;BME280;27734;47.028;28.820;2022-12-18T09:34:38;102025.53;;;0.77;76.11
42067;BME280;27734;47.028;28.820;2022-12-18T09:37:09;102017.80;;;0.86;76.26
42067;BME280;27734;47.028;28.820;2022-12-18T09:39:41;102025.38;;;0.93;76.16
42067;BME280;27734;47.028;28.820;2022-12-18T09:42:15;102022.94;;;0.95;75.55
42067;BME280;27734;47.028;28.820;2022-12-18T09:44:51;102029.94;;;0.96;75.99
42067;BME280;27734;47.028;28.820;2022-12-18T09:47:27;102031.00;;;0.98;75.56
42067;BME280;27734;47.028;28.820;2022-12-18T09:50:01;102032.39;;;1.03;76.37
42067;BME280;27734;47.028;28.820;2022-12-18T09:52:32;102035.23;;;1.06;75.30
42067;BME280;27734;47.028;28.820;2022-12-18T09:55:10;102035.88;;;1.03;74.88
42067;BME280;27734;47.028;28.820;2022-12-18T09:57:47;102033.14;;;1.02;74.52
42067;BME280;27734;47.028;28.820;2022-12-18T10:00:22;102037.85;;;0.97;73.17
42067;BME280;27734;47.028;28.820;2022-12-18T10:02:56;102039.38;;;0.95;73.58
42067;BME280;27734;47.028;28.820;2022-12-18T10:05:36;102051.52;;;0.96;74.47
42067;BME280;27734;47.028;28.820;2022-12-18T10:08:10;102042.56;;;0.93;73.36
42067;BME280;27734;47.028;28.820;2022-12-18T10:10:48;102036.49;;;0.92;74.50
42067;BME280;27734;47.028;28.820;2022-12-18T10:13:26;102044.55;;;0.95;74.52
42067;BME280;27734;47.028;28.820;2022-12-18T10:16:12;102035.27;;;0.97;74.85
42067;BME280;27734;47.028;28.820;2022-12-18T10:18:59;102042.42;;;1.00;74.43
42067;BME280;27734;47.028;28.820;2022-12-18T10:21:36;102048.34;;;0.99;74.71
42067;BME280;27734;47.028;28.820;2022-12-18T10:24:16;102050.33;;;1.01;74.30
42067;BME280;27734;47.028;28.820;2022-12-18T10:26:53;102056.55;;;1.03;74.14
42067;BME280;27734;47.028;28.820;2022-12-18T10:29:27;102058.69;;;0.99;73.09
42067;BME280;27734;47.028;28.820;2022-12-18T10:31:58;102063.39;;;0.94;73.05
42067;BME280;27734;47.028;28.820;2022-12-18T10:34:30;102050.63;;;0.96;72.87
42067;BME280;27734;47.028;28.820;2022-12-18T10:37:09;102052.16;;;0.94;72.84
42067;BME280;27734;47.028;28.820;2022-12-18T10:39:45;102058.67;;;0.90;72.75
42067;BME280;27734;47.028;28.820;2022-12-18T10:42:20;102059.91;;;0.94;74.37
42067;BME280;27734;47.028;28.820;2022-12-18T10:45:03;102075.57;;;0.95;74.26
42067;BME280;27734;47.028;28.820;2022-12-18T10:47:35;102067.36;;;0.91;73.72
42067;BME280;27734;47.028;28.820;2022-12-18T10:50:23;102071.28;;;0.87;74.22
42067;BME280;27734;47.028;28.820;2022-12-18T10:52:58;102070.23;;;0.85;73.72
42067;BME280;27734;47.028;28.820;2022-12-18T10:55:33;102075.55;;;0.86;73.99
42067;BME280;27734;47.028;28.820;2022-12-18T10:58:26;102075.09;;;0.82;73.70
42067;BME280;27734;47.028;28.820;2022-12-18T11:01:18;102069.47;;;0.77;74.35
42067;BME280;27734;47.028;28.820;2022-12-18T11:04:02;102086.50;;;0.75;74.26
42067;BME280;27734;47.028;28.820;2022-12-18T11:06:54;102085.88;;;0.69;73.98
42067;BME280;27734;47.028;28.820;2022-12-18T11:09:27;102088.47;;;0.69;74.54
42067;BME280;27734;47.028;28.820;2022-12-18T11:12:00;102101.38;;;0.69;75.06
42067;BME280;27734;47.028;28.820;2022-12-18T11:14:34;102089.05;;;0.66;74.71
42067;BME280;27734;47.028;28.820;2022-12-18T11:17:21;102096.50;;;0.63;74.58
42067;BME280;27734;47.028;28.820;2022-12-18T11:20:03;102091.02;;;0.60;74.97
42067;BME280;27734;47.028;28.820;2022-12-18T11:22:37;102098.30;;;0.56;74.20
42067;BME280;27734;47.028;28.820;2022-12-18T11:25:20;102099.20;;;0.56;75.23
42067;BME280;27734;47.028;28.820;2022-12-18T11:27:54;102103.16;;;0.52;75.19
42067;BME280;27734;47.028;28.820;2022-12-18T11:30:28;102106.52;;;0.51;74.19
42067;BME280;27734;47.028;28.820;2022-12-18T11:33:00;102114.08;;;0.41;74.16
42067;BME280;27734;47.028;28.820;2022-12-18T11:35:42;102110.59;;;0.41;74.85
42067;BME280;27734;47.028;28.820;2022-12-18T11:38:23;102130.78;;;0.36;74.63
42067;BME280;27734;47.028;28.820;2022-12-18T11:40:58;102119.20;;;0.32;74.81
42067;BME280;27734;47.028;28.820;2022-12-18T11:43:33;102126.47;;;0.28;74.52
42067;BME280;27734;47.028;28.820;2022-12-18T11:46:08;102128.16;;;0.27;74.27
42067;BME280;27734;47.028;28.820;2022-12-18T11:48:44;102137.42;;;0.25;74.16
42067;BME280;27734;47.028;28.820;2022-12-18T11:51:25;102136.79;;;0.19;73.60
42067;BME280;27734;47.028;28.820;2022-12-18T11:53:59;102129.95;;;0.20;74.31
42067;BME280;27734;47.028;28.820;2022-12-18T11:56:35;102132.37;;;0.18;74.08
42067;BME280;27734;47.028;28.820;2022-12-18T11:59:14;102145.12;;;0.16;74.24
42067;BME280;27734;47.028;28.820;2022-12-18T12:01:52;102112.45;;;0.17;74.04
42067;BME280;27734;47.028;28.820;2022-12-18T12:04:40;102110.34;;;0.13;74.15
42067;BME280;27734;47.028;28.820;2022-12-18T12:07:27;102116.56;;;0.15;74.43
42067;BME280;27734;47.028;28.820;2022-12-18T12:10:09;102129.36;;;0.22;74.37
42067;BME280;27734;47.028;28.820;2022-12-18T12:12:56;102122.09;;;0.27;74.45
42067;BME280;27734;47.028;28.820;2022-12-18T12:15:38;102130.31;;;0.31;74.31
42067;BME280;27734;47.028;28.820;2022-12-18T12:18:19;102143.70;;;0.36;74.40
42067;BME280;27734;47.028;28.820;2022-12-18T12:21:01;102143.85;;;0.38;74.47
42067;BME280;27734;47.028;28.820;2022-12-18T12:23:41;102146.75;;;0.41;74.12
42067;BME280;27734;47.028;28.820;2022-12-18T12:26:20;102161.16;;;0.39;73.29
42067;BME280;27734;47.028;28.820;2022-12-18T12:29:09;102151.14;;;0.42;74.22
42067;BME280;27734;47.028;28.820;2022-12-18T12:31:55;102156.45;;;0.43;73.63
42067;BME280;27734;47.028;28.820;2022-12-18T12:34:34;102162.56;;;0.44;73.61
42067;BME280;27734;47.028;28.820;2022-12-18T12:37:20;102166.95;;;0.45;73.34
42067;BME280;27734;47.028;28.820;2022-12-18T12:39:57;102174.42;;;0.50;73.96
42067;BME280;27734;47.028;28.820;2022-12-18T12:42:32;102164.56;;;0.55;73.62
42067;BME280;27734;47.028;28.820;2022-12-18T12:45:28;102171.38;;;0.54;73.29
42067;BME280;27734;47.028;28.820;2022-12-18T12:48:03;102162.14;;;0.57;73.76
42067;BME280;27734;47.028;28.820;2022-12-18T12:50:36;102173.69;;;0.60;73.81
42067;BME280;27734;47.028;28.820;2022-12-18T12:53:14;102172.16;;;0.53;73.16
42067;BME280;27734;47.028;28.820;2022-12-18T12:55:46;102177.02;;;0.50;72.35
42067;BME280;27734;47.028;28.820;2022-12-18T12:58:23;102185.34;;;0.48;71.98
42067;BME280;27734;47.028;28.820;2022-12-18T13:01:04;102199.20;;;0.48;73.05
42067;BME280;27734;47.028;28.820;2022-12-18T13:03:46;102193.09;;;0.48;72.79
42067;BME280;27734;47.028;28.820;2022-12-18T13:06:27;102195.67;;;0.48;72.63
42067;BME280;27734;47.028;28.820;2022-12-18T13:09:00;102188.24;;;0.51;73.73
42067;BME280;27734;47.028;28.820;2022-12-18T13:11:38;102201.16;;;0.51;72.83
42067;BME280;27734;47.028;28.820;2022-12-18T13:14:31;102208.91;;;0.51;73.18
42067;BME280;27734;47.028;28.820;2022-12-18T13:17:28;102213.33;;;0.52;73.34
42067;BME280;27734;47.028;28.820;2022-12-18T13:20:14;102217.59;;;0.51;73.46
42067;BME280;27734;47.028;28.820;2022-12-18T13:22:47;102219.24;;;0.51;72.98
42067;BME280;27734;47.028;28.820;2022-12-18T13:25:35;102231.58;;;0.53;73.60
42067;BME280;27734;47.028;28.820;2022-12-18T13:28:12;102229.73;;;0.52;73.39
42067;BME280;27734;47.028;28.820;2022-12-18T13:30:52;102240.06;;;0.52;72.81
42067;BME280;27734;47.028;28.820;2022-12-18T13:33:42;102243.55;;;0.53;73.43